createdAt,value
2019-02-15T00:02:10.396Z,21.07
2019-02-15T00:04:39.191Z,21.33
2019-02-15T00:07:08.122Z,22.30
2019-02-15T00:09:36.950Z,21.10
2019-02-15T00:12:05.850Z,22.97
2019-02-15T00:14:46.822Z,21.77
2019-02-15T00:17:18.994Z,22.42
2019-02-15T00:19:51.579Z,21.45
2019-02-15T00:22:20.374Z,20.90
2019-02-15T00:24:49.214Z,22.05
2019-02-15T00:27:18.091Z,22.05
2019-02-15T00:29:48.162Z,21.75
2019-02-15T00:32:17.381Z,21.25
2019-02-15T00:34:46.631Z,20.80
2019-02-15T00:37:15.405Z,20.17
2019-02-15T00:39:44.363Z,21.10
2019-02-15T00:42:13.247Z,20.62
2019-02-15T00:44:42.383Z,20.50
2019-02-15T00:47:32.999Z,20.70
2019-02-15T00:50:13.226Z,21.10
2019-02-15T00:53:04.247Z,21.37
2019-02-15T00:55:58.452Z,21.68
2019-02-15T00:58:55.931Z,20.97
2019-02-15T01:01:42.726Z,20.82
2019-02-15T01:04:28.878Z,21.27
2019-02-15T01:07:13.184Z,21.68
2019-02-15T01:09:58.303Z,21.02
2019-02-15T01:12:33.483Z,20.57
2019-02-15T01:15:02.755Z,21.23
2019-02-15T01:17:31.590Z,21.85
2019-02-15T01:20:00.782Z,21.97
2019-02-15T01:22:29.768Z,21.30
2019-02-15T01:24:59.589Z,21.82
2019-02-15T01:27:38.744Z,22.00
2019-02-15T01:30:32.729Z,20.20
2019-02-15T01:33:17.599Z,21.93
2019-02-15T01:35:56.094Z,22.05
2019-02-15T01:38:43.992Z,20.97
2019-02-15T01:41:31.880Z,22.40
2019-02-15T01:44:06.483Z,21.27
2019-02-15T01:46:41.258Z,20.37
2019-02-15T01:49:10.167Z,20.62
2019-02-15T01:51:39.107Z,20.17
2019-02-15T01:54:08.014Z,22.52
2019-02-15T01:56:36.809Z,22.20
2019-02-15T01:59:05.631Z,21.10
2019-02-15T02:01:34.510Z,21.00
2019-02-15T02:04:03.943Z,20.97
2019-02-15T02:06:32.755Z,20.27
2019-02-15T02:09:01.630Z,20.72
2019-02-15T02:11:32.079Z,21.20
2019-02-15T02:14:01.095Z,21.23
2019-02-15T02:16:29.875Z,19.77
2019-02-15T02:18:58.796Z,20.00
2019-02-15T02:21:27.604Z,21.17
2019-02-15T02:23:56.826Z,20.43
2019-02-15T02:26:25.846Z,20.23
2019-02-15T02:28:54.723Z,20.62
2019-02-15T02:31:23.620Z,20.27
2019-02-15T02:33:52.672Z,20.60
2019-02-15T02:36:21.723Z,19.52
2019-02-15T02:38:50.863Z,19.57
2019-02-15T02:41:19.662Z,19.42
2019-02-15T02:43:48.506Z,20.45
2019-02-15T02:46:17.332Z,20.30
2019-02-15T02:48:46.183Z,19.82
2019-02-15T02:51:15.285Z,19.95
2019-02-15T02:53:44.143Z,22.07
2019-02-15T02:56:13.020Z,20.92
2019-02-15T02:58:41.819Z,20.37
2019-02-15T03:01:10.618Z,21.30
2019-02-15T03:03:39.450Z,20.50
2019-02-15T03:06:08.250Z,20.32
2019-02-15T03:08:37.091Z,21.30
2019-02-15T03:11:05.967Z,21.23
2019-02-15T03:13:34.747Z,21.13
2019-02-15T03:16:03.537Z,20.75
2019-02-15T03:18:32.402Z,20.05
2019-02-15T03:21:01.294Z,19.57
2019-02-15T03:23:30.262Z,20.68
2019-02-15T03:25:59.180Z,20.50
2019-02-15T03:28:28.014Z,20.60
2019-02-15T03:30:56.902Z,19.42
2019-02-15T03:33:25.764Z,19.10
2019-02-15T03:35:57.549Z,19.25
2019-02-15T03:38:35.579Z,21.97
2019-02-15T03:41:05.813Z,21.00
2019-02-15T03:43:34.662Z,21.33
2019-02-15T03:46:03.707Z,21.20
2019-02-15T03:48:32.825Z,21.80
2019-02-15T03:51:01.588Z,22.85
2019-02-15T03:53:30.460Z,23.73
2019-02-15T03:55:59.647Z,23.62
2019-02-15T03:58:28.469Z,21.83
2019-02-15T04:00:57.376Z,20.80
2019-02-15T04:03:27.232Z,22.22
2019-02-15T04:05:56.303Z,21.48
2019-02-15T04:08:25.228Z,22.40
2019-02-15T04:10:54.180Z,22.93
2019-02-15T04:13:23.176Z,22.15
2019-02-15T04:15:52.255Z,22.40
2019-02-15T04:18:21.510Z,23.55
2019-02-15T04:20:50.388Z,22.25
2019-02-15T04:23:19.215Z,24.32
2019-02-15T04:25:48.161Z,22.07
2019-02-15T04:28:17.310Z,23.92
2019-02-15T04:30:46.062Z,24.20
2019-02-15T04:33:15.275Z,24.15
2019-02-15T04:35:44.070Z,25.17
2019-02-15T04:38:12.854Z,25.17
2019-02-15T04:40:41.659Z,25.70
2019-02-15T04:43:10.440Z,25.08
2019-02-15T04:45:39.252Z,23.30
2019-02-15T04:48:08.051Z,28.07
2019-02-15T04:50:36.872Z,31.02
2019-02-15T04:53:05.644Z,27.85
2019-02-15T04:55:34.406Z,26.60
2019-02-15T04:58:03.287Z,28.07
2019-02-15T05:00:32.468Z,25.57
2019-02-15T05:03:01.273Z,25.80
2019-02-15T05:05:30.120Z,25.85
2019-02-15T05:07:59.438Z,27.27
2019-02-15T05:10:28.570Z,26.68
2019-02-15T05:12:57.422Z,26.40
2019-02-15T05:15:26.550Z,28.27
2019-02-15T05:17:55.362Z,27.02
2019-02-15T05:20:24.157Z,26.50
2019-02-15T05:22:53.298Z,26.30
2019-02-15T05:25:22.105Z,29.30
2019-02-15T05:27:51.207Z,29.12
2019-02-15T05:30:20.002Z,28.57
2019-02-15T05:32:48.800Z,26.65
2019-02-15T05:35:17.650Z,28.02
2019-02-15T05:37:46.395Z,28.05
2019-02-15T05:40:15.219Z,32.70
2019-02-15T05:42:43.999Z,31.30
2019-02-15T05:45:12.939Z,29.75
2019-02-15T05:47:41.743Z,28.42
2019-02-15T05:50:10.582Z,31.68
2019-02-15T05:52:40.116Z,32.90
2019-02-15T05:55:09.031Z,32.75
2019-02-15T05:57:37.928Z,31.87
2019-02-15T06:00:08.020Z,34.88
2019-02-15T06:02:56.096Z,35.17
2019-02-15T06:05:24.962Z,35.78
2019-02-15T06:07:53.876Z,34.75
2019-02-15T06:10:23.186Z,35.83
2019-02-15T06:12:51.964Z,32.78
2019-02-15T06:15:20.863Z,33.43
2019-02-15T06:17:49.766Z,33.80
2019-02-15T06:20:18.594Z,32.42
2019-02-15T06:22:47.470Z,33.28
2019-02-15T06:25:16.342Z,35.20
2019-02-15T06:27:45.162Z,36.40
2019-02-15T06:30:14.051Z,35.03
2019-02-15T06:32:42.878Z,33.08
2019-02-15T06:35:18.571Z,32.42
2019-02-15T06:37:56.379Z,33.70
2019-02-15T06:40:34.866Z,34.43
2019-02-15T06:43:03.995Z,34.98
2019-02-15T06:45:32.800Z,43.87
2019-02-15T06:48:01.598Z,41.50
2019-02-15T06:50:30.735Z,41.68
2019-02-15T06:52:59.803Z,41.13
2019-02-15T06:55:28.983Z,40.43
2019-02-15T06:57:57.782Z,39.48
2019-02-15T07:00:48.984Z,45.60
2019-02-15T07:03:36.838Z,43.92
2019-02-15T07:06:05.750Z,42.10
2019-02-15T07:08:34.905Z,44.58
2019-02-15T07:11:03.826Z,42.27
2019-02-15T07:13:32.636Z,41.87
2019-02-15T07:16:01.409Z,41.42
2019-02-15T07:18:30.186Z,38.67
2019-02-15T07:20:59.031Z,38.92
2019-02-15T07:23:27.786Z,39.08
2019-02-15T07:25:56.636Z,38.40
2019-02-15T07:28:25.895Z,36.03
2019-02-15T07:30:54.681Z,33.25
2019-02-15T07:33:23.483Z,31.33
2019-02-15T07:35:52.342Z,31.10
2019-02-15T07:38:21.130Z,29.35
2019-02-15T07:40:50.239Z,27.22
2019-02-15T07:43:19.034Z,27.13
2019-02-15T07:45:47.990Z,26.25
2019-02-15T07:48:17.099Z,26.52
2019-02-15T07:50:45.863Z,26.65
2019-02-15T07:53:14.652Z,25.20
2019-02-15T07:55:43.792Z,27.90
2019-02-15T07:58:12.630Z,27.65
2019-02-15T08:00:41.502Z,26.42
2019-02-15T08:03:10.676Z,27.02
2019-02-15T08:05:39.459Z,26.12
2019-02-15T08:08:08.222Z,26.85
2019-02-15T08:10:37.022Z,28.07
2019-02-15T08:13:05.809Z,28.98
2019-02-15T08:15:36.461Z,27.37
2019-02-15T08:18:05.438Z,27.65
2019-02-15T08:20:34.210Z,26.27
2019-02-15T08:23:03.377Z,26.70
2019-02-15T08:25:32.188Z,26.37
2019-02-15T08:28:00.959Z,25.32
2019-02-15T08:30:30.081Z,24.32
2019-02-15T08:32:59.167Z,24.60
2019-02-15T08:35:27.942Z,25.52
2019-02-15T08:37:56.726Z,25.45
2019-02-15T08:40:25.530Z,25.62
2019-02-15T08:42:56.031Z,25.43
2019-02-15T08:45:24.958Z,25.72
2019-02-15T08:47:53.754Z,26.17
2019-02-15T08:50:23.010Z,26.35
2019-02-15T08:52:52.159Z,26.42
2019-02-15T08:55:21.363Z,26.68
2019-02-15T08:57:50.142Z,26.65
2019-02-15T09:00:19.018Z,26.53
2019-02-15T09:02:48.035Z,26.40
2019-02-15T09:05:16.962Z,26.80
2019-02-15T09:07:45.806Z,27.48
2019-02-15T09:10:14.734Z,27.70
2019-02-15T09:12:43.643Z,27.67
2019-02-15T09:15:15.167Z,27.52
2019-02-15T09:17:44.090Z,27.62
2019-02-15T09:20:13.210Z,27.85
2019-02-15T09:22:42.017Z,27.37
2019-02-15T09:25:11.142Z,27.82
2019-02-15T09:28:14.503Z,28.12
2019-02-15T09:30:46.262Z,27.62
2019-02-15T09:33:15.464Z,27.77
2019-02-15T09:35:44.230Z,27.48
2019-02-15T09:38:13.086Z,28.02
2019-02-15T09:40:41.911Z,28.60
2019-02-15T09:43:11.730Z,28.40
2019-02-15T09:45:40.575Z,27.83
2019-02-15T09:48:09.829Z,27.40
2019-02-15T09:50:38.674Z,27.02
2019-02-15T09:53:07.489Z,26.90
2019-02-15T09:55:36.334Z,26.33
2019-02-15T09:58:05.243Z,26.80
2019-02-15T10:00:34.048Z,25.15
2019-02-15T10:03:03.250Z,25.88
2019-02-15T10:05:32.096Z,25.52
2019-02-15T10:08:00.955Z,25.70
2019-02-15T10:10:29.797Z,24.43
2019-02-15T10:12:59.110Z,24.12
2019-02-15T10:15:27.957Z,24.30
2019-02-15T10:17:57.130Z,24.00
2019-02-15T10:20:26.036Z,24.67
2019-02-15T10:22:54.845Z,24.07
2019-02-15T10:25:23.698Z,23.75
2019-02-15T10:27:52.579Z,23.98
2019-02-15T10:30:21.707Z,23.40
2019-02-15T10:32:50.518Z,23.52
2019-02-15T10:35:19.333Z,23.27
2019-02-15T10:37:48.147Z,23.27
2019-02-15T10:40:16.960Z,23.25
2019-02-15T10:42:46.073Z,23.70
2019-02-15T10:45:15.142Z,24.00
2019-02-15T10:47:44.126Z,22.98
2019-02-15T10:50:13.019Z,22.97
2019-02-15T10:52:41.866Z,22.70
2019-02-15T10:55:10.855Z,22.20
2019-02-15T10:57:40.063Z,22.93
2019-02-15T11:00:13.006Z,23.32
2019-02-15T11:02:41.875Z,23.10
2019-02-15T11:05:11.098Z,21.87
2019-02-15T11:07:40.061Z,22.10
2019-02-15T11:10:08.995Z,22.35
2019-02-15T11:12:37.826Z,22.02
2019-02-15T11:15:07.482Z,22.13
2019-02-15T11:17:36.300Z,22.00
2019-02-15T11:20:05.416Z,22.55
2019-02-15T11:22:34.179Z,22.00
2019-02-15T11:25:02.995Z,21.85
2019-02-15T11:27:31.822Z,22.27
2019-02-15T11:30:00.703Z,22.17
2019-02-15T11:32:29.517Z,20.92
2019-02-15T11:34:58.364Z,21.45
2019-02-15T11:37:27.252Z,22.17
2019-02-15T11:39:56.115Z,21.85
2019-02-15T11:42:25.270Z,22.30
2019-02-15T11:44:54.239Z,20.08
2019-02-15T11:47:23.073Z,21.23
2019-02-15T11:49:51.910Z,21.40
2019-02-15T11:52:20.794Z,21.00
2019-02-15T11:54:49.840Z,21.25
2019-02-15T11:57:18.659Z,20.90
2019-02-15T11:59:47.794Z,20.12
2019-02-15T12:02:16.719Z,20.93
2019-02-15T12:04:45.501Z,19.57
2019-02-15T12:07:14.398Z,20.25
2019-02-15T12:09:43.291Z,20.52
2019-02-15T12:12:12.290Z,20.15
2019-02-15T12:14:41.355Z,19.33
2019-02-15T12:17:10.153Z,20.17
2019-02-15T12:19:38.987Z,20.70
2019-02-15T12:22:07.913Z,19.70
2019-02-15T12:24:36.741Z,20.52
2019-02-15T12:27:05.571Z,19.20
2019-02-15T12:29:34.718Z,18.75
2019-02-15T12:32:03.707Z,19.20
2019-02-15T12:34:32.558Z,18.70
2019-02-15T12:37:01.363Z,19.17
2019-02-15T12:39:30.200Z,20.10
2019-02-15T12:41:59.011Z,18.45
2019-02-15T12:44:27.931Z,19.23
2019-02-15T12:46:56.900Z,19.05
2019-02-15T12:49:25.746Z,18.92
2019-02-15T12:51:54.685Z,19.00
2019-02-15T12:54:23.511Z,18.23
2019-02-15T12:56:52.389Z,17.70
2019-02-15T12:59:21.571Z,18.95
2019-02-15T13:01:50.477Z,18.95
2019-02-15T13:04:19.719Z,19.00
2019-02-15T13:06:48.624Z,19.20
2019-02-15T13:09:17.414Z,19.07
2019-02-15T13:11:46.334Z,18.42
2019-02-15T13:14:15.151Z,18.90
2019-02-15T13:16:44.347Z,19.35
2019-02-15T13:19:13.300Z,19.60
2019-02-15T13:21:42.541Z,18.82
2019-02-15T13:24:11.438Z,19.17
2019-02-15T13:26:40.231Z,19.02
2019-02-15T13:29:09.171Z,18.87
2019-02-15T13:31:38.082Z,18.35
2019-02-15T13:34:07.015Z,17.75
2019-02-15T13:36:35.902Z,17.10
2019-02-15T13:39:06.095Z,17.90
2019-02-15T13:41:35.382Z,18.55
2019-02-15T13:44:04.385Z,17.52
2019-02-15T13:46:33.442Z,18.27
2019-02-15T13:49:02.966Z,17.53
2019-02-15T13:51:31.831Z,17.85
2019-02-15T13:54:00.744Z,19.20
2019-02-15T13:56:29.586Z,18.17
2019-02-15T13:58:58.495Z,17.52
2019-02-15T14:01:27.413Z,18.35
2019-02-15T14:03:56.284Z,17.90
2019-02-15T14:06:25.210Z,17.48
2019-02-15T14:08:54.059Z,17.40
2019-02-15T14:11:22.847Z,18.40
2019-02-15T14:13:51.681Z,18.57
2019-02-15T14:16:20.555Z,17.95
2019-02-15T14:18:50.220Z,18.73
2019-02-15T14:21:19.069Z,18.67
2019-02-15T14:23:48.076Z,18.87
2019-02-15T14:26:17.033Z,18.32
2019-02-15T14:28:46.631Z,18.60
2019-02-15T14:31:15.565Z,18.15
2019-02-15T14:33:44.529Z,17.55
2019-02-15T14:36:13.507Z,17.85
2019-02-15T14:38:42.405Z,17.90
2019-02-15T14:41:11.648Z,18.03
2019-02-15T14:43:40.706Z,17.70
2019-02-15T14:46:09.561Z,17.37
2019-02-15T14:48:38.418Z,17.30
2019-02-15T14:51:07.224Z,16.93
2019-02-15T14:53:36.046Z,17.15
2019-02-15T14:56:04.875Z,17.57
2019-02-15T14:58:33.734Z,16.73
2019-02-15T15:01:02.607Z,16.48
2019-02-15T15:03:31.658Z,16.17
2019-02-15T15:06:00.498Z,16.10
2019-02-15T15:08:30.797Z,15.63
2019-02-15T15:10:59.811Z,15.58
2019-02-15T15:13:28.607Z,14.87
2019-02-15T15:15:57.806Z,14.90
2019-02-15T15:18:26.677Z,14.87
2019-02-15T15:20:55.506Z,15.23
2019-02-15T15:23:24.556Z,14.83
2019-02-15T15:25:53.443Z,14.83
2019-02-15T15:28:22.344Z,14.40
2019-02-15T15:30:51.228Z,14.50
2019-02-15T15:33:20.141Z,14.43
2019-02-15T15:35:49.059Z,14.07
2019-02-15T15:38:17.922Z,14.10
2019-02-15T15:40:46.782Z,13.45
2019-02-15T15:43:15.763Z,13.60
2019-02-15T15:45:44.603Z,13.30
2019-02-15T15:48:22.163Z,14.55
2019-02-15T15:50:44.251Z,14.50
2019-02-15T15:53:13.086Z,14.70
2019-02-15T15:55:41.936Z,14.03
2019-02-15T15:58:10.795Z,14.13
2019-02-15T16:00:39.654Z,15.30
2019-02-15T16:03:08.529Z,15.35
2019-02-15T16:05:37.386Z,15.83
2019-02-15T16:08:06.246Z,16.25
2019-02-15T16:10:35.230Z,16.93
2019-02-15T16:13:04.138Z,17.73
2019-02-15T16:15:33.013Z,17.32
2019-02-15T16:18:04.110Z,17.23
2019-02-15T16:20:33.379Z,17.32
2019-02-15T16:23:02.279Z,17.75
2019-02-15T16:25:31.100Z,18.27
2019-02-15T16:27:59.961Z,18.17
2019-02-15T16:30:28.965Z,18.50
2019-02-15T16:33:00.116Z,17.52
2019-02-15T16:35:28.667Z,17.52
2019-02-15T16:37:57.738Z,18.45
2019-02-15T16:40:26.590Z,19.00
2019-02-15T16:42:55.569Z,19.35
2019-02-15T16:45:28.771Z,19.50
2019-02-15T16:47:57.628Z,19.80
2019-02-15T16:50:26.551Z,19.73
2019-02-15T16:52:55.367Z,19.95
2019-02-15T16:55:24.502Z,20.30
2019-02-15T16:57:53.481Z,20.02
2019-02-15T17:00:22.506Z,19.85
2019-02-15T17:02:51.402Z,19.77
2019-02-15T17:05:20.367Z,20.35
2019-02-15T17:07:49.178Z,21.00
2019-02-15T17:10:18.138Z,21.25
2019-02-15T17:12:47.459Z,30.27
2019-02-15T17:15:19.383Z,29.55
2019-02-15T17:17:48.269Z,24.07
2019-02-15T17:20:17.073Z,21.60
2019-02-15T17:22:45.937Z,22.82
2019-02-15T17:25:14.767Z,22.32
2019-02-15T17:27:43.623Z,23.65
2019-02-15T17:30:12.750Z,24.47
2019-02-15T17:32:41.615Z,24.67
2019-02-15T17:35:10.577Z,24.32
2019-02-15T17:37:39.476Z,24.45
2019-02-15T17:40:09.716Z,25.08
2019-02-15T17:42:38.907Z,24.70
2019-02-15T17:45:08.830Z,23.12
2019-02-15T17:47:37.683Z,24.37
2019-02-15T17:50:06.782Z,25.75
2019-02-15T17:52:35.712Z,25.27
2019-02-15T17:55:04.675Z,25.62
2019-02-15T17:57:33.666Z,26.80
2019-02-15T18:00:02.752Z,27.87
2019-02-15T18:02:31.654Z,28.30
2019-02-15T18:05:00.538Z,27.20
2019-02-15T18:07:29.371Z,26.25
2019-02-15T18:09:58.168Z,25.57
2019-02-15T18:12:26.957Z,26.97
2019-02-15T18:14:55.818Z,25.40
2019-02-15T18:17:24.631Z,23.60
2019-02-15T18:19:53.416Z,23.27
2019-02-15T18:22:22.234Z,22.15
2019-02-15T18:24:51.118Z,23.32
2019-02-15T18:27:19.935Z,23.00
2019-02-15T18:29:49.007Z,23.02
2019-02-15T18:32:17.803Z,22.35
2019-02-15T18:34:46.645Z,23.62
2019-02-15T18:37:15.502Z,22.85
2019-02-15T18:39:44.354Z,23.52
2019-02-15T18:42:13.162Z,23.73
2019-02-15T18:44:42.051Z,23.95
2019-02-15T18:47:11.072Z,23.75
2019-02-15T18:49:39.908Z,24.27
2019-02-15T18:52:09.011Z,24.50
2019-02-15T18:54:37.815Z,24.75
2019-02-15T18:57:06.727Z,25.92
2019-02-15T18:59:35.594Z,24.87
2019-02-15T19:02:04.468Z,26.27
2019-02-15T19:04:33.242Z,26.62
2019-02-15T19:07:02.087Z,26.33
2019-02-15T19:09:30.862Z,26.40
2019-02-15T19:11:59.943Z,26.00
2019-02-15T19:14:28.746Z,25.35
2019-02-15T19:16:57.519Z,25.70
2019-02-15T19:19:29.126Z,26.33
2019-02-15T19:21:57.205Z,26.87
2019-02-15T19:24:26.039Z,25.60
2019-02-15T19:26:54.889Z,26.60
2019-02-15T19:29:23.688Z,25.97
2019-02-15T19:31:52.621Z,26.68
2019-02-15T19:34:21.734Z,26.93
2019-02-15T19:36:50.642Z,26.93
2019-02-15T19:39:19.564Z,30.00
2019-02-15T19:41:48.352Z,29.75
2019-02-15T19:44:17.180Z,30.80
2019-02-15T19:46:45.959Z,31.60
2019-02-15T19:49:14.798Z,30.85
2019-02-15T19:51:43.603Z,32.40
2019-02-15T19:54:12.370Z,33.10
2019-02-15T19:56:41.258Z,36.15
2019-02-15T19:59:10.115Z,35.40
2019-02-15T20:01:39.200Z,37.00
2019-02-15T20:04:08.241Z,37.07
2019-02-15T20:06:37.042Z,35.55
2019-02-15T20:09:06.423Z,38.05
2019-02-15T20:11:35.238Z,37.83
2019-02-15T20:14:05.639Z,35.92
2019-02-15T20:16:34.443Z,35.88
2019-02-15T20:19:03.228Z,35.78
2019-02-15T20:21:32.135Z,37.28
2019-02-15T20:24:00.934Z,38.05
2019-02-15T20:26:30.027Z,37.48
2019-02-15T20:28:59.159Z,39.78
2019-02-15T20:31:28.061Z,39.88
2019-02-15T20:33:56.885Z,39.93
2019-02-15T20:36:25.723Z,40.23
2019-02-15T20:38:54.523Z,40.60
2019-02-15T20:41:23.328Z,43.60
2019-02-15T20:43:52.151Z,44.98
2019-02-15T20:46:20.995Z,44.83
2019-02-15T20:49:03.822Z,43.45
2019-02-15T20:51:20.747Z,43.85
2019-02-15T20:53:49.573Z,42.23
2019-02-15T20:56:18.363Z,41.90
2019-02-15T20:58:47.291Z,44.13
2019-02-15T21:01:16.105Z,43.83
2019-02-15T21:03:45.214Z,42.38
2019-02-15T21:06:14.763Z,43.25
2019-02-15T21:08:43.896Z,43.55
2019-02-15T21:11:12.714Z,42.70
2019-02-15T21:13:41.554Z,41.85
2019-02-15T21:16:10.367Z,42.08
2019-02-15T21:18:39.197Z,43.08
2019-02-15T21:21:07.999Z,42.58
2019-02-15T21:23:36.810Z,42.43
2019-02-15T21:26:05.666Z,41.58
2019-02-15T21:28:34.504Z,42.13
2019-02-15T21:31:03.359Z,43.58
2019-02-15T21:33:32.237Z,45.57
2019-02-15T21:36:01.778Z,44.73
2019-02-15T21:38:30.585Z,43.83
2019-02-15T21:40:59.722Z,43.65
2019-02-15T21:43:28.559Z,45.30
2019-02-15T21:45:57.662Z,43.23
2019-02-15T21:48:26.515Z,43.90
2019-02-15T21:50:55.418Z,42.38
2019-02-15T21:53:24.306Z,44.13
2019-02-15T21:55:53.435Z,44.48
2019-02-15T21:58:22.244Z,44.65
2019-02-15T22:00:51.122Z,44.05
2019-02-15T22:03:19.976Z,44.48
2019-02-15T22:05:48.847Z,43.13
2019-02-15T22:08:17.653Z,43.02
2019-02-15T22:10:46.441Z,42.30
2019-02-15T22:13:15.230Z,43.25
2019-02-15T22:15:44.171Z,41.85
2019-02-15T22:18:13.020Z,41.65
2019-02-15T22:20:41.810Z,44.67
2019-02-15T22:23:10.622Z,47.70
2019-02-15T22:25:42.638Z,46.33
2019-02-15T22:28:11.799Z,44.05
2019-02-15T22:30:40.595Z,43.58
2019-02-15T22:33:09.397Z,43.68
2019-02-15T22:35:38.321Z,43.87
2019-02-15T22:38:07.120Z,41.58
2019-02-15T22:40:37.998Z,42.23
2019-02-15T22:43:09.686Z,42.58
2019-02-15T22:45:38.562Z,41.92
2019-02-15T22:48:07.423Z,41.33
2019-02-15T22:50:36.591Z,41.88
2019-02-15T22:53:05.496Z,43.30
2019-02-15T22:55:34.370Z,42.78
2019-02-15T22:58:04.675Z,48.45
2019-02-15T23:00:50.951Z,41.65
2019-02-15T23:03:22.166Z,41.13
2019-02-15T23:05:51.121Z,41.18
2019-02-15T23:08:20.062Z,40.12
2019-02-15T23:10:49.031Z,40.55
2019-02-15T23:13:18.107Z,39.60
2019-02-15T23:15:47.090Z,41.33
2019-02-15T23:18:15.973Z,40.58
2019-02-15T23:20:45.689Z,39.98
2019-02-15T23:23:14.791Z,39.30
2019-02-15T23:25:46.095Z,41.40
2019-02-15T23:28:14.956Z,41.02
2019-02-15T23:30:43.822Z,40.08
2019-02-15T23:33:12.938Z,42.17
2019-02-15T23:35:41.727Z,41.95
2019-02-15T23:38:10.567Z,42.17
2019-02-15T23:40:39.411Z,40.88
2019-02-15T23:43:08.275Z,39.42
2019-02-15T23:45:37.159Z,41.60
2019-02-15T23:48:05.946Z,39.85
2019-02-15T23:50:34.743Z,38.85
2019-02-15T23:53:03.662Z,40.00
2019-02-15T23:55:32.470Z,41.18
2019-02-15T23:58:01.302Z,38.50
